sensor_id;sensor_type;location;lat;lon;timestamp;P1;durP1;ratioP1;P2;durP2;ratioP2
48993;SDS011;34804;49.214;12.276;2023-03-20T00:02:07;22.33;;;9.85;;
48993;SDS011;34804;49.214;12.276;2023-03-20T00:04:40;23.90;;;10.90;;
48993;SDS011;34804;49.214;12.276;2023-03-20T00:07:07;19.08;;;9.70;;
48993;SDS011;34804;49.214;12.276;2023-03-20T00:09:37;21.92;;;9.68;;
48993;SDS011;34804;49.214;12.276;2023-03-20T00:12:05;20.75;;;11.13;;
48993;SDS011;34804;49.214;12.276;2023-03-20T00:14:32;22.80;;;11.05;;
48993;SDS011;34804;49.214;12.276;2023-03-20T00:16:59;21.52;;;11.00;;
48993;SDS011;34804;49.214;12.276;2023-03-20T00:19:27;18.70;;;9.70;;
48993;SDS011;34804;49.214;12.276;2023-03-20T00:21:54;19.42;;;9.75;;
48993;SDS011;34804;49.214;12.276;2023-03-20T00:24:22;16.17;;;9.43;;
48993;SDS011;34804;49.214;12.276;2023-03-20T00:26:51;20.42;;;10.60;;
48993;SDS011;34804;49.214;12.276;2023-03-20T00:29:23;16.75;;;9.63;;
48993;SDS011;34804;49.214;12.276;2023-03-20T00:31:52;17.30;;;8.50;;
48993;SDS011;34804;49.214;12.276;2023-03-20T00:34:20;17.50;;;8.18;;
48993;SDS011;34804;49.214;12.276;2023-03-20T00:36:52;13.25;;;7.68;;
48993;SDS011;34804;49.214;12.276;2023-03-20T00:39:19;12.00;;;7.72;;
48993;SDS011;34804;49.214;12.276;2023-03-20T00:41:50;15.35;;;8.07;;
48993;SDS011;34804;49.214;12.276;2023-03-20T00:44:21;13.27;;;7.75;;
48993;SDS011;34804;49.214;12.276;2023-03-20T00:46:56;15.45;;;8.15;;
48993;SDS011;34804;49.214;12.276;2023-03-20T00:49:29;15.38;;;8.20;;
48993;SDS011;34804;49.214;12.276;2023-03-20T00:51:57;11.73;;;5.95;;
48993;SDS011;34804;49.214;12.276;2023-03-20T00:54:26;12.63;;;5.93;;
48993;SDS011;34804;49.214;12.276;2023-03-20T00:56:58;10.75;;;5.95;;
48993;SDS011;34804;49.214;12.276;2023-03-20T00:59:26;10.38;;;5.50;;
48993;SDS011;34804;49.214;12.276;2023-03-20T01:01:57;14.15;;;6.00;;
48993;SDS011;34804;49.214;12.276;2023-03-20T01:04:27;9.85;;;6.13;;
48993;SDS011;34804;49.214;12.276;2023-03-20T01:06:59;12.73;;;6.63;;
48993;SDS011;34804;49.214;12.276;2023-03-20T01:09:27;14.00;;;7.07;;
48993;SDS011;34804;49.214;12.276;2023-03-20T01:11:53;12.73;;;7.30;;
48993;SDS011;34804;49.214;12.276;2023-03-20T01:14:20;13.30;;;7.32;;
48993;SDS011;34804;49.214;12.276;2023-03-20T01:16:47;14.57;;;7.30;;
48993;SDS011;34804;49.214;12.276;2023-03-20T01:19:14;10.88;;;6.40;;
48993;SDS011;34804;49.214;12.276;2023-03-20T01:21:42;14.25;;;7.50;;
48993;SDS011;34804;49.214;12.276;2023-03-20T01:24:09;11.40;;;6.90;;
48993;SDS011;34804;49.214;12.276;2023-03-20T01:26:37;11.20;;;6.30;;
48993;SDS011;34804;49.214;12.276;2023-03-20T01:29:18;13.20;;;7.40;;
48993;SDS011;34804;49.214;12.276;2023-03-20T01:31:48;15.43;;;6.50;;
48993;SDS011;34804;49.214;12.276;2023-03-20T01:34:15;12.13;;;6.63;;
48993;SDS011;34804;49.214;12.276;2023-03-20T01:37:01;14.00;;;7.75;;
48993;SDS011;34804;49.214;12.276;2023-03-20T01:39:30;14.50;;;6.75;;
48993;SDS011;34804;49.214;12.276;2023-03-20T01:41:59;13.68;;;6.78;;
48993;SDS011;34804;49.214;12.276;2023-03-20T01:44:28;17.38;;;7.55;;
48993;SDS011;34804;49.214;12.276;2023-03-20T01:46:56;25.60;;;8.77;;
48993;SDS011;34804;49.214;12.276;2023-03-20T01:51:54;22.60;;;8.63;;
48993;SDS011;34804;49.214;12.276;2023-03-20T01:54:26;18.65;;;8.52;;
48993;SDS011;34804;49.214;12.276;2023-03-20T01:57:04;16.52;;;7.50;;
48993;SDS011;34804;49.214;12.276;2023-03-20T02:02:22;15.98;;;7.30;;
48993;SDS011;34804;49.214;12.276;2023-03-20T02:04:53;21.58;;;7.63;;
48993;SDS011;34804;49.214;12.276;2023-03-20T02:07:24;15.63;;;7.15;;
48993;SDS011;34804;49.214;12.276;2023-03-20T02:09:51;24.08;;;8.75;;
48993;SDS011;34804;49.214;12.276;2023-03-20T02:12:18;28.25;;;8.43;;
48993;SDS011;34804;49.214;12.276;2023-03-20T02:14:46;27.70;;;9.20;;
48993;SDS011;34804;49.214;12.276;2023-03-20T02:17:14;23.65;;;9.13;;
48993;SDS011;34804;49.214;12.276;2023-03-20T02:28:22;23.35;;;8.82;;
48993;SDS011;34804;49.214;12.276;2023-03-20T02:40:16;27.90;;;11.05;;
48993;SDS011;34804;49.214;12.276;2023-03-20T02:46:05;23.85;;;11.18;;
48993;SDS011;34804;49.214;12.276;2023-03-20T02:59:37;26.88;;;10.95;;
48993;SDS011;34804;49.214;12.276;2023-03-20T03:02:09;35.60;;;11.65;;
48993;SDS011;34804;49.214;12.276;2023-03-20T03:04:50;24.02;;;9.70;;
48993;SDS011;34804;49.214;12.276;2023-03-20T03:07:24;25.13;;;9.13;;
48993;SDS011;34804;49.214;12.276;2023-03-20T03:10:00;18.45;;;8.23;;
48993;SDS011;34804;49.214;12.276;2023-03-20T03:12:34;27.52;;;8.85;;
48993;SDS011;34804;49.214;12.276;2023-03-20T03:15:05;25.20;;;8.75;;
48993;SDS011;34804;49.214;12.276;2023-03-20T03:17:42;25.02;;;8.52;;
48993;SDS011;34804;49.214;12.276;2023-03-20T03:20:15;27.23;;;9.00;;
48993;SDS011;34804;49.214;12.276;2023-03-20T03:22:49;26.88;;;9.90;;
48993;SDS011;34804;49.214;12.276;2023-03-20T03:25:16;23.98;;;8.90;;
48993;SDS011;34804;49.214;12.276;2023-03-20T03:27:44;21.70;;;10.02;;
48993;SDS011;34804;49.214;12.276;2023-03-20T03:30:18;20.80;;;9.25;;
48993;SDS011;34804;49.214;12.276;2023-03-20T03:35:42;32.08;;;9.52;;
48993;SDS011;34804;49.214;12.276;2023-03-20T03:40:42;24.52;;;10.23;;
48993;SDS011;34804;49.214;12.276;2023-03-20T03:43:30;24.23;;;10.75;;
48993;SDS011;34804;49.214;12.276;2023-03-20T03:46:24;31.67;;;11.05;;
48993;SDS011;34804;49.214;12.276;2023-03-20T03:49:03;34.10;;;11.20;;
48993;SDS011;34804;49.214;12.276;2023-03-20T03:51:33;34.63;;;12.27;;
48993;SDS011;34804;49.214;12.276;2023-03-20T03:54:06;39.13;;;10.88;;
48993;SDS011;34804;49.214;12.276;2023-03-20T03:56:36;25.55;;;10.93;;
48993;SDS011;34804;49.214;12.276;2023-03-20T03:59:07;30.05;;;11.90;;
48993;SDS011;34804;49.214;12.276;2023-03-20T04:01:39;29.42;;;11.27;;
48993;SDS011;34804;49.214;12.276;2023-03-20T04:04:09;32.33;;;11.23;;
48993;SDS011;34804;49.214;12.276;2023-03-20T04:06:40;30.70;;;11.23;;
48993;SDS011;34804;49.214;12.276;2023-03-20T04:09:07;19.98;;;10.07;;
48993;SDS011;34804;49.214;12.276;2023-03-20T04:11:34;24.42;;;11.20;;
48993;SDS011;34804;49.214;12.276;2023-03-20T04:14:01;26.67;;;11.15;;
48993;SDS011;34804;49.214;12.276;2023-03-20T04:16:28;41.47;;;12.32;;
48993;SDS011;34804;49.214;12.276;2023-03-20T04:18:56;29.98;;;12.90;;
48993;SDS011;34804;49.214;12.276;2023-03-20T04:21:23;24.63;;;12.52;;
48993;SDS011;34804;49.214;12.276;2023-03-20T04:23:50;20.95;;;10.38;;
48993;SDS011;34804;49.214;12.276;2023-03-20T04:26:17;24.85;;;11.48;;
48993;SDS011;34804;49.214;12.276;2023-03-20T04:28:43;34.70;;;10.93;;
48993;SDS011;34804;49.214;12.276;2023-03-20T04:31:10;23.65;;;8.70;;
48993;SDS011;34804;49.214;12.276;2023-03-20T04:33:37;19.73;;;8.95;;
48993;SDS011;34804;49.214;12.276;2023-03-20T04:36:04;30.90;;;9.75;;
48993;SDS011;34804;49.214;12.276;2023-03-20T04:38:32;33.38;;;10.18;;
48993;SDS011;34804;49.214;12.276;2023-03-20T04:40:58;19.80;;;9.35;;
48993;SDS011;34804;49.214;12.276;2023-03-20T04:43:25;21.50;;;9.45;;
48993;SDS011;34804;49.214;12.276;2023-03-20T04:45:52;17.95;;;9.25;;
48993;SDS011;34804;49.214;12.276;2023-03-20T04:48:19;24.17;;;10.02;;
48993;SDS011;34804;49.214;12.276;2023-03-20T04:50:46;23.88;;;9.68;;
48993;SDS011;34804;49.214;12.276;2023-03-20T04:53:14;23.27;;;10.32;;
48993;SDS011;34804;49.214;12.276;2023-03-20T04:55:41;27.48;;;10.65;;
48993;SDS011;34804;49.214;12.276;2023-03-20T04:58:08;19.40;;;9.80;;
48993;SDS011;34804;49.214;12.276;2023-03-20T05:00:35;24.73;;;9.52;;
48993;SDS011;34804;49.214;12.276;2023-03-20T05:03:02;26.10;;;9.75;;
48993;SDS011;34804;49.214;12.276;2023-03-20T05:05:29;30.48;;;9.90;;
48993;SDS011;34804;49.214;12.276;2023-03-20T05:07:55;21.90;;;9.70;;
48993;SDS011;34804;49.214;12.276;2023-03-20T05:10:22;24.42;;;10.23;;
48993;SDS011;34804;49.214;12.276;2023-03-20T05:12:49;23.60;;;9.60;;
48993;SDS011;34804;49.214;12.276;2023-03-20T05:15:16;24.70;;;10.90;;
48993;SDS011;34804;49.214;12.276;2023-03-20T05:17:43;20.50;;;9.95;;
48993;SDS011;34804;49.214;12.276;2023-03-20T05:20:10;20.80;;;9.50;;
48993;SDS011;34804;49.214;12.276;2023-03-20T05:22:37;17.60;;;9.60;;
48993;SDS011;34804;49.214;12.276;2023-03-20T05:25:04;19.48;;;9.40;;
48993;SDS011;34804;49.214;12.276;2023-03-20T05:27:31;16.73;;;8.68;;
48993;SDS011;34804;49.214;12.276;2023-03-20T05:29:58;15.40;;;9.32;;
48993;SDS011;34804;49.214;12.276;2023-03-20T05:32:25;16.42;;;9.38;;
48993;SDS011;34804;49.214;12.276;2023-03-20T05:34:52;17.02;;;9.02;;
48993;SDS011;34804;49.214;12.276;2023-03-20T05:37:19;16.92;;;10.15;;
48993;SDS011;34804;49.214;12.276;2023-03-20T05:39:46;17.27;;;9.57;;
48993;SDS011;34804;49.214;12.276;2023-03-20T05:42:12;17.48;;;9.50;;
48993;SDS011;34804;49.214;12.276;2023-03-20T05:44:39;17.42;;;10.02;;
48993;SDS011;34804;49.214;12.276;2023-03-20T05:47:06;16.60;;;10.00;;
48993;SDS011;34804;49.214;12.276;2023-03-20T05:49:33;15.60;;;9.23;;
48993;SDS011;34804;49.214;12.276;2023-03-20T05:52:00;14.45;;;7.95;;
48993;SDS011;34804;49.214;12.276;2023-03-20T05:54:27;16.17;;;10.45;;
48993;SDS011;34804;49.214;12.276;2023-03-20T05:56:53;17.17;;;9.38;;
48993;SDS011;34804;49.214;12.276;2023-03-20T05:59:24;17.85;;;10.30;;
48993;SDS011;34804;49.214;12.276;2023-03-20T06:01:51;17.88;;;10.68;;
48993;SDS011;34804;49.214;12.276;2023-03-20T06:04:17;17.77;;;10.13;;
48993;SDS011;34804;49.214;12.276;2023-03-20T06:06:44;15.88;;;9.80;;
48993;SDS011;34804;49.214;12.276;2023-03-20T06:09:11;19.83;;;10.30;;
48993;SDS011;34804;49.214;12.276;2023-03-20T06:11:38;16.67;;;10.13;;
48993;SDS011;34804;49.214;12.276;2023-03-20T06:14:05;16.83;;;10.02;;
48993;SDS011;34804;49.214;12.276;2023-03-20T06:16:32;20.60;;;11.80;;
48993;SDS011;34804;49.214;12.276;2023-03-20T06:18:59;19.60;;;10.75;;
48993;SDS011;34804;49.214;12.276;2023-03-20T06:21:26;18.58;;;9.73;;
48993;SDS011;34804;49.214;12.276;2023-03-20T06:23:53;18.20;;;10.55;;
48993;SDS011;34804;49.214;12.276;2023-03-20T06:26:20;21.85;;;11.32;;
48993;SDS011;34804;49.214;12.276;2023-03-20T06:28:47;20.85;;;12.65;;
48993;SDS011;34804;49.214;12.276;2023-03-20T06:31:14;22.08;;;12.52;;
48993;SDS011;34804;49.214;12.276;2023-03-20T06:33:42;24.38;;;13.25;;
48993;SDS011;34804;49.214;12.276;2023-03-20T06:36:10;21.00;;;13.15;;
48993;SDS011;34804;49.214;12.276;2023-03-20T06:38:36;22.08;;;13.32;;
48993;SDS011;34804;49.214;12.276;2023-03-20T06:41:03;25.35;;;13.43;;
48993;SDS011;34804;49.214;12.276;2023-03-20T06:43:30;19.60;;;12.50;;
48993;SDS011;34804;49.214;12.276;2023-03-20T06:45:57;20.58;;;12.40;;
48993;SDS011;34804;49.214;12.276;2023-03-20T06:48:24;20.33;;;12.70;;
48993;SDS011;34804;49.214;12.276;2023-03-20T06:50:51;19.30;;;11.57;;
48993;SDS011;34804;49.214;12.276;2023-03-20T06:53:18;16.65;;;11.32;;
48993;SDS011;34804;49.214;12.276;2023-03-20T06:55:46;19.15;;;10.88;;
48993;SDS011;34804;49.214;12.276;2023-03-20T06:58:14;17.92;;;10.95;;
48993;SDS011;34804;49.214;12.276;2023-03-20T07:00:41;16.33;;;10.55;;
48993;SDS011;34804;49.214;12.276;2023-03-20T07:03:08;18.75;;;11.73;;
48993;SDS011;34804;49.214;12.276;2023-03-20T07:05:37;17.10;;;10.65;;
48993;SDS011;34804;49.214;12.276;2023-03-20T07:08:04;20.40;;;11.65;;
48993;SDS011;34804;49.214;12.276;2023-03-20T07:10:33;18.67;;;10.57;;
48993;SDS011;34804;49.214;12.276;2023-03-20T07:13:01;19.05;;;11.65;;
48993;SDS011;34804;49.214;12.276;2023-03-20T07:15:28;17.73;;;11.30;;
48993;SDS011;34804;49.214;12.276;2023-03-20T07:17:55;18.38;;;11.32;;
48993;SDS011;34804;49.214;12.276;2023-03-20T07:20:22;21.35;;;12.65;;
48993;SDS011;34804;49.214;12.276;2023-03-20T07:22:49;18.63;;;11.60;;
48993;SDS011;34804;49.214;12.276;2023-03-20T07:25:16;17.35;;;11.65;;
48993;SDS011;34804;49.214;12.276;2023-03-20T07:27:51;20.08;;;12.45;;
48993;SDS011;34804;49.214;12.276;2023-03-20T07:30:18;20.13;;;12.98;;
48993;SDS011;34804;49.214;12.276;2023-03-20T07:32:46;20.33;;;11.75;;
48993;SDS011;34804;49.214;12.276;2023-03-20T07:35:14;19.52;;;12.18;;
48993;SDS011;34804;49.214;12.276;2023-03-20T07:37:41;23.55;;;11.45;;
48993;SDS011;34804;49.214;12.276;2023-03-20T07:40:08;16.05;;;10.93;;
48993;SDS011;34804;49.214;12.276;2023-03-20T07:42:36;20.75;;;11.80;;
48993;SDS011;34804;49.214;12.276;2023-03-20T07:45:03;19.77;;;12.15;;
48993;SDS011;34804;49.214;12.276;2023-03-20T07:47:31;18.70;;;12.18;;
48993;SDS011;34804;49.214;12.276;2023-03-20T07:49:58;16.92;;;11.45;;
48993;SDS011;34804;49.214;12.276;2023-03-20T07:52:25;17.13;;;11.20;;
48993;SDS011;34804;49.214;12.276;2023-03-20T07:54:53;15.95;;;10.45;;
48993;SDS011;34804;49.214;12.276;2023-03-20T07:57:20;17.08;;;10.63;;
48993;SDS011;34804;49.214;12.276;2023-03-20T07:59:47;13.30;;;9.23;;
48993;SDS011;34804;49.214;12.276;2023-03-20T08:02:14;14.10;;;10.10;;
48993;SDS011;34804;49.214;12.276;2023-03-20T08:04:42;14.93;;;9.77;;
48993;SDS011;34804;49.214;12.276;2023-03-20T08:07:10;14.75;;;9.25;;
48993;SDS011;34804;49.214;12.276;2023-03-20T08:09:39;16.48;;;9.82;;
48993;SDS011;34804;49.214;12.276;2023-03-20T08:12:06;15.07;;;9.27;;
48993;SDS011;34804;49.214;12.276;2023-03-20T08:14:33;16.88;;;9.50;;
48993;SDS011;34804;49.214;12.276;2023-03-20T08:17:00;15.90;;;10.52;;
48993;SDS011;34804;49.214;12.276;2023-03-20T08:19:39;16.65;;;10.45;;
48993;SDS011;34804;49.214;12.276;2023-03-20T08:22:06;15.77;;;11.00;;
48993;SDS011;34804;49.214;12.276;2023-03-20T08:24:33;18.40;;;11.65;;
48993;SDS011;34804;49.214;12.276;2023-03-20T08:27:00;20.77;;;11.60;;
48993;SDS011;34804;49.214;12.276;2023-03-20T08:29:28;17.90;;;11.45;;
48993;SDS011;34804;49.214;12.276;2023-03-20T08:31:55;17.95;;;11.38;;
48993;SDS011;34804;49.214;12.276;2023-03-20T08:34:23;17.55;;;11.13;;
48993;SDS011;34804;49.214;12.276;2023-03-20T08:36:49;14.60;;;9.88;;
48993;SDS011;34804;49.214;12.276;2023-03-20T08:39:17;14.55;;;9.68;;
48993;SDS011;34804;49.214;12.276;2023-03-20T08:41:44;13.20;;;10.13;;
48993;SDS011;34804;49.214;12.276;2023-03-20T08:44:12;14.95;;;9.57;;
48993;SDS011;34804;49.214;12.276;2023-03-20T08:46:38;14.70;;;9.60;;
48993;SDS011;34804;49.214;12.276;2023-03-20T08:49:05;12.55;;;9.68;;
48993;SDS011;34804;49.214;12.276;2023-03-20T08:51:32;14.20;;;9.25;;
48993;SDS011;34804;49.214;12.276;2023-03-20T08:54:00;13.77;;;9.13;;
48993;SDS011;34804;49.214;12.276;2023-03-20T08:56:27;13.75;;;8.52;;
48993;SDS011;34804;49.214;12.276;2023-03-20T08:58:54;11.25;;;8.50;;
48993;SDS011;34804;49.214;12.276;2023-03-20T09:01:21;11.60;;;8.40;;
48993;SDS011;34804;49.214;12.276;2023-03-20T09:03:48;12.75;;;8.73;;
48993;SDS011;34804;49.214;12.276;2023-03-20T09:06:15;11.48;;;8.27;;
48993;SDS011;34804;49.214;12.276;2023-03-20T09:08:42;13.23;;;7.70;;
48993;SDS011;34804;49.214;12.276;2023-03-20T09:11:09;11.90;;;8.05;;
48993;SDS011;34804;49.214;12.276;2023-03-20T09:13:36;9.82;;;7.45;;
48993;SDS011;34804;49.214;12.276;2023-03-20T09:16:03;12.43;;;8.25;;
48993;SDS011;34804;49.214;12.276;2023-03-20T09:18:31;12.13;;;7.25;;
48993;SDS011;34804;49.214;12.276;2023-03-20T09:21:00;10.77;;;6.78;;
48993;SDS011;34804;49.214;12.276;2023-03-20T09:23:27;9.98;;;5.97;;
48993;SDS011;34804;49.214;12.276;2023-03-20T09:25:54;9.43;;;6.30;;
48993;SDS011;34804;49.214;12.276;2023-03-20T09:28:23;8.73;;;6.35;;
48993;SDS011;34804;49.214;12.276;2023-03-20T09:30:53;9.18;;;6.70;;
48993;SDS011;34804;49.214;12.276;2023-03-20T09:33:25;10.05;;;5.38;;
48993;SDS011;34804;49.214;12.276;2023-03-20T09:35:52;9.43;;;5.50;;
48993;SDS011;34804;49.214;12.276;2023-03-20T09:38:20;7.63;;;5.10;;
48993;SDS011;34804;49.214;12.276;2023-03-20T09:49:08;7.22;;;4.75;;
48993;SDS011;34804;49.214;12.276;2023-03-20T09:54:50;7.28;;;4.63;;
48993;SDS011;34804;49.214;12.276;2023-03-20T09:57:26;6.63;;;4.38;;
48993;SDS011;34804;49.214;12.276;2023-03-20T10:00:09;6.53;;;4.45;;
48993;SDS011;34804;49.214;12.276;2023-03-20T10:02:58;7.10;;;4.50;;
48993;SDS011;34804;49.214;12.276;2023-03-20T10:05:28;7.40;;;3.80;;
48993;SDS011;34804;49.214;12.276;2023-03-20T10:08:02;6.57;;;4.07;;
48993;SDS011;34804;49.214;12.276;2023-03-20T10:13:34;6.45;;;3.75;;
48993;SDS011;34804;49.214;12.276;2023-03-20T10:16:16;6.88;;;3.95;;
48993;SDS011;34804;49.214;12.276;2023-03-20T10:18:56;6.55;;;3.80;;
48993;SDS011;34804;49.214;12.276;2023-03-20T10:21:42;7.05;;;4.53;;
48993;SDS011;34804;49.214;12.276;2023-03-20T10:24:16;6.22;;;4.15;;
48993;SDS011;34804;49.214;12.276;2023-03-20T10:26:57;6.13;;;3.92;;
48993;SDS011;34804;49.214;12.276;2023-03-20T10:29:32;6.10;;;3.50;;
48993;SDS011;34804;49.214;12.276;2023-03-20T10:32:32;6.53;;;3.90;;
48993;SDS011;34804;49.214;12.276;2023-03-20T10:43:31;5.25;;;3.38;;
48993;SDS011;34804;49.214;12.276;2023-03-20T10:48:44;6.50;;;3.15;;
48993;SDS011;34804;49.214;12.276;2023-03-20T10:51:18;5.22;;;3.42;;
48993;SDS011;34804;49.214;12.276;2023-03-20T10:53:48;6.32;;;3.40;;
48993;SDS011;34804;49.214;12.276;2023-03-20T10:59:04;5.63;;;2.90;;
48993;SDS011;34804;49.214;12.276;2023-03-20T11:01:36;5.53;;;3.10;;
48993;SDS011;34804;49.214;12.276;2023-03-20T11:04:03;5.65;;;3.15;;
48993;SDS011;34804;49.214;12.276;2023-03-20T11:06:40;8.07;;;2.88;;
48993;SDS011;34804;49.214;12.276;2023-03-20T11:09:15;4.75;;;2.78;;
48993;SDS011;34804;49.214;12.276;2023-03-20T11:11:46;4.47;;;2.80;;
48993;SDS011;34804;49.214;12.276;2023-03-20T11:14:19;4.45;;;2.80;;
48993;SDS011;34804;49.214;12.276;2023-03-20T11:16:51;4.60;;;2.90;;
48993;SDS011;34804;49.214;12.276;2023-03-20T11:19:21;6.28;;;3.08;;
48993;SDS011;34804;49.214;12.276;2023-03-20T11:21:51;4.70;;;2.55;;
48993;SDS011;34804;49.214;12.276;2023-03-20T11:24:26;4.70;;;2.70;;
48993;SDS011;34804;49.214;12.276;2023-03-20T11:29:40;5.80;;;2.63;;
48993;SDS011;34804;49.214;12.276;2023-03-20T11:34:40;4.72;;;2.25;;
48993;SDS011;34804;49.214;12.276;2023-03-20T11:37:25;4.15;;;2.40;;
48993;SDS011;34804;49.214;12.276;2023-03-20T11:45:35;3.65;;;1.80;;
48993;SDS011;34804;49.214;12.276;2023-03-20T11:48:05;3.22;;;1.45;;
48993;SDS011;34804;49.214;12.276;2023-03-20T11:50:45;2.83;;;1.55;;
48993;SDS011;34804;49.214;12.276;2023-03-20T11:56:10;4.70;;;1.90;;
48993;SDS011;34804;49.214;12.276;2023-03-20T11:58:47;2.75;;;1.50;;
48993;SDS011;34804;49.214;12.276;2023-03-20T12:01:39;3.13;;;1.23;;
48993;SDS011;34804;49.214;12.276;2023-03-20T12:07:10;2.88;;;1.33;;
48993;SDS011;34804;49.214;12.276;2023-03-20T12:15:14;3.13;;;1.40;;
48993;SDS011;34804;49.214;12.276;2023-03-20T12:20:24;4.65;;;1.35;;
48993;SDS011;34804;49.214;12.276;2023-03-20T12:25:53;3.15;;;1.38;;
48993;SDS011;34804;49.214;12.276;2023-03-20T12:36:58;3.20;;;1.20;;
48993;SDS011;34804;49.214;12.276;2023-03-20T12:39:26;3.20;;;1.25;;
48993;SDS011;34804;49.214;12.276;2023-03-20T12:44:50;2.95;;;1.40;;
48993;SDS011;34804;49.214;12.276;2023-03-20T13:07:00;2.85;;;1.10;;
48993;SDS011;34804;49.214;12.276;2023-03-20T13:09:41;2.50;;;1.20;;
48993;SDS011;34804;49.214;12.276;2023-03-20T13:17:49;2.47;;;1.10;;
48993;SDS011;34804;49.214;12.276;2023-03-20T13:23:29;2.67;;;0.88;;
48993;SDS011;34804;49.214;12.276;2023-03-20T13:28:49;2.95;;;1.15;;
48993;SDS011;34804;49.214;12.276;2023-03-20T13:37:34;2.70;;;1.23;;
48993;SDS011;34804;49.214;12.276;2023-03-20T13:45:55;1.67;;;0.80;;
48993;SDS011;34804;49.214;12.276;2023-03-20T13:51:09;1.25;;;0.50;;
48993;SDS011;34804;49.214;12.276;2023-03-20T13:56:34;1.80;;;0.73;;
48993;SDS011;34804;49.214;12.276;2023-03-20T14:01:57;2.25;;;0.90;;
48993;SDS011;34804;49.214;12.276;2023-03-20T14:04:43;2.33;;;1.00;;
48993;SDS011;34804;49.214;12.276;2023-03-20T14:07:32;1.67;;;0.60;;
48993;SDS011;34804;49.214;12.276;2023-03-20T14:10:46;2.22;;;0.98;;
48993;SDS011;34804;49.214;12.276;2023-03-20T14:12:53;1.25;;;0.70;;
48993;SDS011;34804;49.214;12.276;2023-03-20T14:17:52;1.08;;;0.60;;
48993;SDS011;34804;49.214;12.276;2023-03-20T14:20:21;2.55;;;0.85;;
48993;SDS011;34804;49.214;12.276;2023-03-20T14:22:49;2.67;;;0.50;;
48993;SDS011;34804;49.214;12.276;2023-03-20T14:25:17;1.73;;;0.68;;
48993;SDS011;34804;49.214;12.276;2023-03-20T14:27:59;1.85;;;0.70;;
48993;SDS011;34804;49.214;12.276;2023-03-20T14:30:49;2.90;;;0.80;;
48993;SDS011;34804;49.214;12.276;2023-03-20T14:42:06;1.33;;;0.68;;
48993;SDS011;34804;49.214;12.276;2023-03-20T14:52:44;1.08;;;0.63;;
48993;SDS011;34804;49.214;12.276;2023-03-20T14:58:33;1.38;;;0.80;;
48993;SDS011;34804;49.214;12.276;2023-03-20T15:06:25;1.80;;;0.90;;
48993;SDS011;34804;49.214;12.276;2023-03-20T15:08:55;2.08;;;0.90;;
48993;SDS011;34804;49.214;12.276;2023-03-20T15:11:32;1.75;;;0.75;;
48993;SDS011;34804;49.214;12.276;2023-03-20T15:14:00;3.22;;;0.85;;
48993;SDS011;34804;49.214;12.276;2023-03-20T15:16:31;1.75;;;0.80;;
48993;SDS011;34804;49.214;12.276;2023-03-20T15:18:59;2.25;;;0.90;;
48993;SDS011;34804;49.214;12.276;2023-03-20T15:21:30;2.45;;;0.90;;
48993;SDS011;34804;49.214;12.276;2023-03-20T15:24:06;1.40;;;0.80;;
48993;SDS011;34804;49.214;12.276;2023-03-20T15:26:41;1.88;;;0.75;;
48993;SDS011;34804;49.214;12.276;2023-03-20T15:29:12;1.48;;;0.70;;
48993;SDS011;34804;49.214;12.276;2023-03-20T15:31:44;1.65;;;0.63;;
48993;SDS011;34804;49.214;12.276;2023-03-20T15:34:16;2.85;;;1.00;;
48993;SDS011;34804;49.214;12.276;2023-03-20T15:36:46;2.47;;;0.85;;
48993;SDS011;34804;49.214;12.276;2023-03-20T15:41:46;1.88;;;0.63;;
48993;SDS011;34804;49.214;12.276;2023-03-20T15:44:18;2.08;;;0.82;;
48993;SDS011;34804;49.214;12.276;2023-03-20T15:46:59;1.98;;;0.80;;
48993;SDS011;34804;49.214;12.276;2023-03-20T15:49:37;3.22;;;0.88;;
48993;SDS011;34804;49.214;12.276;2023-03-20T15:52:11;2.63;;;0.90;;
48993;SDS011;34804;49.214;12.276;2023-03-20T15:55:08;1.38;;;0.80;;
48993;SDS011;34804;49.214;12.276;2023-03-20T15:57:40;1.90;;;0.80;;
48993;SDS011;34804;49.214;12.276;2023-03-20T16:00:14;2.03;;;0.70;;
48993;SDS011;34804;49.214;12.276;2023-03-20T16:02:45;1.95;;;0.90;;
48993;SDS011;34804;49.214;12.276;2023-03-20T16:05:15;1.60;;;0.80;;
48993;SDS011;34804;49.214;12.276;2023-03-20T16:07:43;2.90;;;0.75;;
48993;SDS011;34804;49.214;12.276;2023-03-20T16:10:17;2.33;;;0.80;;
48993;SDS011;34804;49.214;12.276;2023-03-20T16:12:47;1.58;;;0.80;;
48993;SDS011;34804;49.214;12.276;2023-03-20T16:15:16;1.98;;;0.60;;
48993;SDS011;34804;49.214;12.276;2023-03-20T16:17:44;2.25;;;0.70;;
48993;SDS011;34804;49.214;12.276;2023-03-20T16:20:13;2.58;;;1.00;;
48993;SDS011;34804;49.214;12.276;2023-03-20T16:22:42;3.30;;;1.10;;
48993;SDS011;34804;49.214;12.276;2023-03-20T16:25:14;1.85;;;0.80;;
48993;SDS011;34804;49.214;12.276;2023-03-20T16:27:44;3.35;;;0.90;;
48993;SDS011;34804;49.214;12.276;2023-03-20T16:30:16;3.00;;;1.00;;
48993;SDS011;34804;49.214;12.276;2023-03-20T16:32:49;2.03;;;1.00;;
48993;SDS011;34804;49.214;12.276;2023-03-20T16:35:24;2.95;;;1.08;;
48993;SDS011;34804;49.214;12.276;2023-03-20T16:37:58;1.85;;;0.82;;
48993;SDS011;34804;49.214;12.276;2023-03-20T16:40:30;2.47;;;1.10;;
48993;SDS011;34804;49.214;12.276;2023-03-20T16:43:09;1.90;;;1.08;;
48993;SDS011;34804;49.214;12.276;2023-03-20T16:45:40;2.22;;;0.90;;
48993;SDS011;34804;49.214;12.276;2023-03-20T16:50:37;3.50;;;1.33;;
48993;SDS011;34804;49.214;12.276;2023-03-20T16:53:09;2.00;;;0.82;;
48993;SDS011;34804;49.214;12.276;2023-03-20T16:55:43;3.53;;;0.93;;
48993;SDS011;34804;49.214;12.276;2023-03-20T16:58:15;2.80;;;1.00;;
48993;SDS011;34804;49.214;12.276;2023-03-20T17:01:04;2.47;;;1.00;;
48993;SDS011;34804;49.214;12.276;2023-03-20T17:03:57;5.75;;;1.40;;
48993;SDS011;34804;49.214;12.276;2023-03-20T17:06:37;3.53;;;1.02;;
48993;SDS011;34804;49.214;12.276;2023-03-20T17:11:38;3.00;;;1.10;;
48993;SDS011;34804;49.214;12.276;2023-03-20T17:14:11;3.83;;;1.40;;
48993;SDS011;34804;49.214;12.276;2023-03-20T17:16:37;2.80;;;1.10;;
48993;SDS011;34804;49.214;12.276;2023-03-20T17:19:15;2.35;;;1.00;;
48993;SDS011;34804;49.214;12.276;2023-03-20T17:21:44;3.25;;;1.17;;
48993;SDS011;34804;49.214;12.276;2023-03-20T17:24:11;2.22;;;0.98;;
48993;SDS011;34804;49.214;12.276;2023-03-20T17:26:40;1.95;;;1.00;;
48993;SDS011;34804;49.214;12.276;2023-03-20T17:29:10;2.97;;;1.17;;
48993;SDS011;34804;49.214;12.276;2023-03-20T17:31:38;3.35;;;1.38;;
48993;SDS011;34804;49.214;12.276;2023-03-20T17:34:05;2.83;;;1.33;;
48993;SDS011;34804;49.214;12.276;2023-03-20T17:36:32;3.25;;;1.10;;
48993;SDS011;34804;49.214;12.276;2023-03-20T17:39:00;3.85;;;1.25;;
48993;SDS011;34804;49.214;12.276;2023-03-20T17:41:27;3.53;;;1.20;;
48993;SDS011;34804;49.214;12.276;2023-03-20T17:43:55;2.85;;;1.13;;
48993;SDS011;34804;49.214;12.276;2023-03-20T17:46:28;3.88;;;1.23;;
48993;SDS011;34804;49.214;12.276;2023-03-20T17:48:57;2.85;;;1.20;;
48993;SDS011;34804;49.214;12.276;2023-03-20T17:51:27;3.10;;;1.40;;
48993;SDS011;34804;49.214;12.276;2023-03-20T17:53:54;2.78;;;1.10;;
48993;SDS011;34804;49.214;12.276;2023-03-20T17:56:24;2.53;;;1.10;;
48993;SDS011;34804;49.214;12.276;2023-03-20T17:58:55;5.22;;;1.33;;
48993;SDS011;34804;49.214;12.276;2023-03-20T18:01:22;3.45;;;1.48;;